Wetterdaten: Freitag, 07.05.2004
Datum Zeit Temp. A Sch. Temp. A Son. Feuchte A. Luftdruck Regen Wind Richtung Richtung Sonnenschein Helligkeit Taupunkt Windchill
07.05.2004 00:00 7,6 C 8,3 C 94 % 996 hPa 0,0 l/m 2,4 m/s (1 Bft) W-SW22.5 245 0,00 min 0 lux 6,7 C 6,0 C
07.05.2004 00:05 7,6 C 8,2 C 94 % 996 hPa 0,0 l/m 1,6 m/s (1 Bft) W-SW22.5 240 0,00 min 0 lux 6,7 C 7,6 C
07.05.2004 00:10 7,6 C 8,2 C 94 % 996 hPa 0,0 l/m 2,3 m/s (1 Bft) W-SW22.5 250 0,00 min 0 lux 6,7 C 6,3 C
07.05.2004 00:15 7,5 C 8,2 C 94 % 996 hPa 0,0 l/m 2,0 m/s (1 Bft) W-SW22.5 240 0,00 min 0 lux 6,6 C 6,9 C
07.05.2004 00:20 7,6 C 8,1 C 94 % 996 hPa 0,0 l/m 0,4 m/s (0 Bft) SW22.5 235 0,00 min 0 lux 6,7 C 7,6 C
07.05.2004 00:25 7,5 C 8,1 C 94 % 996 hPa 0,0 l/m 2,1 m/s (1 Bft) W-SW22.5 245 0,00 min 0 lux 6,6 C 6,5 C
07.05.2004 00:30 7,5 C 8,1 C 94 % 996 hPa 0,0 l/m 3,2 m/s (1 Bft) W-SW22.5 250 0,00 min 0 lux 6,6 C 3,9 C
07.05.2004 00:35 7,5 C 8,1 C 94 % 996 hPa 0,0 l/m 2,6 m/s (1 Bft) W-SW45 245 0,00 min 0 lux 6,6 C 5,2 C
07.05.2004 00:40 7,5 C 8,0 C 94 % 996 hPa 0,0 l/m 3,3 m/s (1 Bft) W-SW22.5 245 0,00 min 0 lux 6,6 C 3,6 C
07.05.2004 00:45 7,5 C 8,0 C 94 % 996 hPa 0,0 l/m 3,1 m/s (1 Bft) W-SW22.5 255 0,00 min 0 lux 6,6 C 4,2 C
07.05.2004 00:50 7,4 C 8,0 C 94 % 996 hPa 0,0 l/m 2,3 m/s (1 Bft) W-SW22.5 245 0,00 min 0 lux 6,5 C 6,0 C
07.05.2004 00:55 7,4 C 8,0 C 94 % 996 hPa 0,0 l/m 2,3 m/s (1 Bft) W-SW22.5 240 0,00 min 0 lux 6,5 C 6,0 C
07.05.2004 01:00 7,4 C 8,0 C 94 % 996 hPa 0,0 l/m 2,3 m/s (1 Bft) W-SW22.5 255 0,00 min 0 lux 6,5 C 5,8 C
07.05.2004 01:05 7,4 C 7,9 C 93 % 996 hPa 0,0 l/m 2,8 m/s (1 Bft) W-SW22.5 245 0,00 min 0 lux 6,3 C 4,7 C
07.05.2004 01:10 7,4 C 7,9 C 93 % 996 hPa 0,0 l/m 2,8 m/s (1 Bft) W-SW22.5 245 0,00 min 0 lux 6,3 C 4,7 C
07.05.2004 01:15 7,4 C 7,9 C 93 % 996 hPa 0,0 l/m 2,8 m/s (1 Bft) W-SW22.5 255 0,00 min 0 lux 6,3 C 4,7 C
07.05.2004 01:20 7,3 C 7,9 C 93 % 996 hPa 0,0 l/m 2,9 m/s (1 Bft) W-SW22.5 240 0,00 min 0 lux 6,2 C 4,4 C
07.05.2004 01:25 7,3 C 7,9 C 92 % 996 hPa 0,0 l/m 3,1 m/s (1 Bft) W-SW22.5 245 0,00 min 0 lux 6,1 C 3,9 C
07.05.2004 01:30 7,4 C 7,9 C 92 % 996 hPa 0,0 l/m 2,6 m/s (1 Bft) W-SW45 245 0,00 min 0 lux 6,2 C 5,1 C
07.05.2004 01:35 7,4 C 7,9 C 92 % 996 hPa 0,0 l/m 2,1 m/s (1 Bft) W-SW22.5 250 0,00 min 0 lux 6,2 C 6,6 C
07.05.2004 01:40 7,4 C 7,9 C 91 % 996 hPa 0,0 l/m 2,8 m/s (1 Bft) W-SW22.5 245 0,00 min 0 lux 6,0 C 4,7 C
07.05.2004 01:45 7,4 C 7,9 C 91 % 996 hPa 0,0 l/m 3,0 m/s (1 Bft) W-SW22.5 245 0,00 min 0 lux 6,0 C 4,3 C
07.05.2004 01:50 7,4 C 7,9 C 91 % 996 hPa 0,0 l/m 1,7 m/s (1 Bft) W-SW22.5 240 0,00 min 0 lux 6,0 C 7,4 C
07.05.2004 01:55 7,3 C 7,8 C 91 % 996 hPa 0,0 l/m 4,0 m/s (1 Bft) W-SW22.5 255 0,00 min 0 lux 5,9 C 2,1 C
07.05.2004 02:00 7,4 C 7,8 C 90 % 996 hPa 0,0 l/m 2,6 m/s (1 Bft) W-SW45 250 0,00 min 0 lux 5,9 C 5,2 C
07.05.2004 02:05 7,3 C 7,8 C 90 % 996 hPa 0,0 l/m 3,1 m/s (1 Bft) W-SW22.5 245 0,00 min 0 lux 5,8 C 3,9 C
07.05.2004 02:10 7,3 C 7,8 C 89 % 996 hPa 0,0 l/m 3,1 m/s (1 Bft) W-SW22.5 245 0,00 min 0 lux 5,6 C 3,9 C
07.05.2004 02:15 7,3 C 7,8 C 89 % 996 hPa 0,0 l/m 2,0 m/s (1 Bft) W45 260 0,00 min 0 lux 5,6 C 6,7 C
07.05.2004 02:20 7,3 C 7,8 C 89 % 996 hPa 0,4 l/m 2,6 m/s (1 Bft) W-SW22.5 245 0,00 min 0 lux 5,6 C 5,0 C
07.05.2004 02:25 7,2 C 7,7 C 89 % 996 hPa 0,0 l/m 2,3 m/s (1 Bft) W-SW45 250 0,00 min 0 lux 5,5 C 5,7 C
07.05.2004 02:30 7,1 C 7,7 C 89 % 996 hPa 0,0 l/m 2,0 m/s (1 Bft) W-SW 245 0,00 min 0 lux 5,4 C 6,4 C
07.05.2004 02:35 7,1 C 7,7 C 89 % 996 hPa 0,0 l/m 5,7 m/s (1 Bft) W-SW45 250 0,00 min 0 lux 5,4 C -0,7 C
07.05.2004 02:40 7,1 C 7,7 C 89 % 996 hPa 0,0 l/m 3,6 m/s (1 Bft) W-SW22.5 245 0,00 min 0 lux 5,4 C 2,6 C
07.05.2004 02:45 7,1 C 7,6 C 89 % 996 hPa 0,0 l/m 2,6 m/s (1 Bft) W-SW22.5 250 0,00 min 0 lux 5,4 C 4,9 C
07.05.2004 02:50 7,0 C 7,6 C 89 % 996 hPa 0,0 l/m 3,2 m/s (1 Bft) W-SW45 250 0,00 min 0 lux 5,3 C 3,3 C
07.05.2004 02:55 7,0 C 7,6 C 89 % 996 hPa 0,0 l/m 2,9 m/s (1 Bft) W-SW22.5 250 0,00 min 0 lux 5,3 C 4,0 C
07.05.2004 03:00 7,0 C 7,6 C 89 % 996 hPa 0,4 l/m 2,1 m/s (1 Bft) W-SW22.5 255 0,00 min 0 lux 5,3 C 5,9 C
07.05.2004 03:05 7,0 C 7,5 C 89 % 996 hPa 0,0 l/m 2,1 m/s (1 Bft) W-SW22.5 255 0,00 min 0 lux 5,3 C 5,9 C
07.05.2004 03:10 6,9 C 7,5 C 90 % 996 hPa 0,0 l/m 2,4 m/s (1 Bft) W-SW22.5 240 0,00 min 0 lux 5,4 C 5,0 C
07.05.2004 03:15 6,6 C 7,5 C 90 % 996 hPa 0,0 l/m 2,5 m/s (1 Bft) W-SW22.5 250 0,00 min 0 lux 5,1 C 4,6 C
07.05.2004 03:20 6,9 C 7,5 C 90 % 996 hPa 0,0 l/m 2,7 m/s (1 Bft) W22.5 260 0,00 min 0 lux 5,4 C 4,4 C
07.05.2004 03:25 6,9 C 7,5 C 90 % 996 hPa 0,0 l/m 3,1 m/s (1 Bft) W22.5 260 0,00 min 0 lux 5,4 C 3,5 C
07.05.2004 03:30 6,9 C 7,5 C 90 % 996 hPa 0,0 l/m 2,7 m/s (1 Bft) W-SW45 250 0,00 min 0 lux 5,4 C 4,3 C
07.05.2004 03:35 6,9 C 7,5 C 90 % 996 hPa 0,0 l/m 2,6 m/s (1 Bft) W-SW22.5 240 0,00 min 0 lux 5,4 C 4,5 C
07.05.2004 03:40 6,9 C 7,4 C 90 % 996 hPa 0,0 l/m 2,4 m/s (1 Bft) W-SW22.5 255 0,00 min 0 lux 5,4 C 5,1 C
07.05.2004 03:45 6,9 C 7,4 C 91 % 996 hPa 0,4 l/m 3,4 m/s (1 Bft) W-SW22.5 250 0,00 min 0 lux 5,5 C 2,8 C
07.05.2004 03:50 6,8 C 7,4 C 91 % 996 hPa 0,0 l/m 2,3 m/s (1 Bft) W-SW22.5 240 0,00 min 0 lux 5,4 C 5,3 C
07.05.2004 03:55 6,8 C 7,4 C 92 % 996 hPa 0,0 l/m 2,8 m/s (1 Bft) W-SW22.5 245 0,00 min 0 lux 5,6 C 4,1 C
07.05.2004 04:00 6,8 C 7,4 C 92 % 996 hPa 0,0 l/m 3,0 m/s (1 Bft) W-SW22.5 250 0,00 min 0 lux 5,6 C 3,5 C
07.05.2004 04:05 6,8 C 7,4 C 92 % 996 hPa 0,4 l/m 2,6 m/s (1 Bft) W-SW22.5 250 0,00 min 0 lux 5,6 C 4,5 C
07.05.2004 04:10 6,8 C 7,4 C 92 % 996 hPa 0,0 l/m 2,9 m/s (1 Bft) W-SW22.5 250 0,00 min 0 lux 5,6 C 3,8 C
07.05.2004 04:15 6,8 C 7,3 C 93 % 996 hPa 0,0 l/m 3,3 m/s (1 Bft) W-SW45 255 0,00 min 0 lux 5,7 C 2,9 C
07.05.2004 04:20 6,9 C 7,4 C 93 % 996 hPa 0,0 l/m 2,2 m/s (1 Bft) W-SW22.5 240 0,00 min 0 lux 5,8 C 5,7 C
07.05.2004 04:25 6,9 C 7,3 C 93 % 996 hPa 0,0 l/m 2,2 m/s (1 Bft) W22.5 265 0,00 min 0 lux 5,8 C 5,7 C
07.05.2004 04:30 6,9 C 7,3 C 93 % 996 hPa 0,0 l/m 2,9 m/s (1 Bft) W-SW22.5 250 0,00 min 0 lux 5,8 C 3,8 C
07.05.2004 04:35 6,9 C 7,4 C 93 % 996 hPa 0,4 l/m 2,9 m/s (1 Bft) W-SW22.5 245 0,00 min 0 lux 5,8 C 3,8 C
07.05.2004 04:40 6,9 C 7,4 C 93 % 996 hPa 0,0 l/m 2,8 m/s (1 Bft) W-SW22.5 250 0,00 min 0 lux 5,8 C 4,1 C
07.05.2004 04:45 6,9 C 7,4 C 93 % 996 hPa 0,4 l/m 2,4 m/s (1 Bft) W-SW22.5 240 0,00 min 0 lux 5,8 C 5,1 C
07.05.2004 04:50 6,9 C 7,4 C 93 % 996 hPa 0,0 l/m 1,6 m/s (1 Bft) W-SW22.5 245 0,00 min 0 lux 5,8 C 6,9 C
07.05.2004 04:55 6,9 C 7,4 C 93 % 996 hPa 0,0 l/m 3,3 m/s (1 Bft) W-SW22.5 250 0,00 min 0 lux 5,8 C 3,1 C
07.05.2004 05:00 7,0 C 7,4 C 93 % 996 hPa 0,4 l/m 4,5 m/s (1 Bft) W-SW45 250 0,00 min 0 lux 5,9 C 0,9 C
07.05.2004 05:05 7,0 C 7,4 C 92 % 996 hPa 0,0 l/m 3,4 m/s (1 Bft) W-SW45 250 0,00 min 0 lux 5,8 C 3,0 C
07.05.2004 05:10 7,0 C 7,4 C 92 % 996 hPa 0,0 l/m 3,6 m/s (1 Bft) W-SW22.5 250 0,00 min 0 lux 5,8 C 2,5 C
07.05.2004 05:15 7,0 C 7,4 C 92 % 996 hPa 0,4 l/m 4,3 m/s (1 Bft) W-SW22.5 250 0,00 min 0 lux 5,8 C 1,3 C
07.05.2004 05:20 7,0 C 7,4 C 92 % 996 hPa 0,0 l/m 4,4 m/s (1 Bft) W-SW22.5 250 0,00 min 0 lux 5,8 C 1,0 C
07.05.2004 05:25 6,9 C 7,4 C 93 % 996 hPa 0,0 l/m 2,8 m/s (1 Bft) W-SW22.5 255 0,00 min 0 lux 5,8 C 4,0 C
07.05.2004 05:30 7,0 C 7,4 C 92 % 996 hPa 0,4 l/m 4,6 m/s (1 Bft) W-SW45 255 0,00 min 0 lux 5,8 C 0,8 C
07.05.2004 05:35 7,1 C 7,4 C 92 % 996 hPa 0,0 l/m 5,8 m/s (2 Bft) W-SW22.5 245 0,00 min 0 lux 5,9 C -0,8 C
07.05.2004 05:40 7,1 C 7,4 C 91 % 996 hPa 0,0 l/m 7,0 m/s (2 Bft) W-SW22.5 255 0,00 min 0 lux 5,7 C -2,1 C
07.05.2004 05:45 7,1 C 7,4 C 90 % 996 hPa 0,0 l/m 6,1 m/s (2 Bft) W45 270 0,00 min 0 lux 5,6 C -1,2 C
07.05.2004 05:50 7,0 C 7,4 C 90 % 996 hPa 0,4 l/m 3,9 m/s (1 Bft) W-SW45 250 0,00 min 45 lux 5,5 C 2,0 C
07.05.2004 05:55 7,1 C 7,4 C 90 % 996 hPa 0,0 l/m 3,6 m/s (1 Bft) W-SW22.5 255 0,00 min 55 lux 5,6 C 2,6 C
07.05.2004 06:00 7,0 C 7,4 C 90 % 996 hPa 0,4 l/m 3,8 m/s (1 Bft) W22.5 270 0,00 min 49 lux 5,5 C 2,1 C
07.05.2004 06:05 6,8 C 7,4 C 91 % 996 hPa 0,0 l/m 4,2 m/s (1 Bft) W-SW22.5 250 0,00 min 97 lux 5,4 C 1,3 C
07.05.2004 06:10 7,0 C 7,4 C 90 % 996 hPa 0,4 l/m 2,2 m/s (1 Bft) W-SW22.5 255 0,00 min 174 lux 5,5 C 5,8 C
07.05.2004 06:15 6,9 C 7,4 C 91 % 996 hPa 0,4 l/m 5,7 m/s (1 Bft) W-SW22.5 250 0,00 min 239 lux 5,5 C -0,9 C
07.05.2004 06:20 6,9 C 7,4 C 91 % 996 hPa 0,0 l/m 4,5 m/s (1 Bft) W-SW67.5 255 0,00 min 379 lux 5,5 C 0,9 C
07.05.2004 06:25 6,8 C 7,3 C 91 % 996 hPa 0,4 l/m 6,9 m/s (2 Bft) W-SW22.5 250 0,00 min 407 lux 5,4 C -2,5 C
07.05.2004 06:30 6,9 C 7,3 C 91 % 996 hPa 0,0 l/m 7,6 m/s (2 Bft) W22.5 265 0,00 min 368 lux 5,5 C -3,0 C
07.05.2004 06:35 6,8 C 7,3 C 91 % 996 hPa 0,4 l/m 7,6 m/s (2 Bft) W22.5 265 0,00 min 629 lux 5,4 C -3,2 C
07.05.2004 06:40 6,8 C 7,3 C 91 % 996 hPa 0,0 l/m 4,3 m/s (1 Bft) W-SW22.5 255 0,00 min 639 lux 5,4 C 1,0 C
07.05.2004 06:45 6,8 C 7,2 C 89 % 996 hPa 0,0 l/m 8,2 m/s (2 Bft) W45 275 0,00 min 1,20 klux 5,1 C -3,7 C
07.05.2004 06:50 6,7 C 7,2 C 88 % 996 hPa 0,0 l/m 6,4 m/s (2 Bft) W-SW45 255 0,00 min 1,23 klux 4,9 C -2,1 C
07.05.2004 06:55 6,7 C 7,2 C 88 % 996 hPa 0,0 l/m 8,3 m/s (2 Bft) W-SW22.5 255 0,00 min 1,13 klux 4,9 C -3,9 C
07.05.2004 07:00 6,6 C 7,2 C 88 % 996 hPa 0,4 l/m 7,7 m/s (2 Bft) W45 260 0,00 min 1,05 klux 4,8 C -3,5 C
07.05.2004 07:05 6,5 C 7,1 C 88 % 996 hPa 0,0 l/m 4,8 m/s (1 Bft) W45 260 0,00 min 979 lux 4,7 C -0,1 C
07.05.2004 07:10 6,5 C 7,1 C 88 % 996 hPa 0,0 l/m 6,4 m/s (2 Bft) W22.5 265 0,00 min 1,01 klux 4,7 C -2,3 C
07.05.2004 07:15 6,5 C 7,1 C 89 % 996 hPa 0,0 l/m 6,3 m/s (2 Bft) W-SW22.5 250 0,00 min 1,13 klux 4,8 C -2,1 C
07.05.2004 07:20 6,5 C 7,0 C 89 % 996 hPa 0,0 l/m 6,5 m/s (2 Bft) W-SW45 255 0,00 min 1,48 klux 4,8 C -2,4 C
07.05.2004 07:25 6,2 C 7,0 C 88 % 996 hPa 0,0 l/m 7,1 m/s (2 Bft) W-SW22.5 250 0,00 min 1,82 klux 4,4 C -3,5 C
07.05.2004 07:30 6,5 C 7,0 C 88 % 996 hPa 0,0 l/m 4,4 m/s (1 Bft) W-SW22.5 255 0,00 min 2,09 klux 4,7 C 0,5 C
07.05.2004 07:35 6,5 C 6,9 C 89 % 996 hPa 0,0 l/m 5,3 m/s (1 Bft) W-SW22.5 250 0,00 min 2,98 klux 4,8 C -0,9 C
07.05.2004 07:40 6,5 C 6,9 C 89 % 996 hPa 0,0 l/m 5,2 m/s (1 Bft) W45 265 0,00 min 3,33 klux 4,8 C -0,7 C
07.05.2004 07:45 6,4 C 6,9 C 89 % 996 hPa 0,4 l/m 4,1 m/s (1 Bft) W-SW22.5 250 0,00 min 4,31 klux 4,7 C 0,9 C
07.05.2004 07:50 6,5 C 6,9 C 90 % 996 hPa 0,4 l/m 4,9 m/s (1 Bft) W-SW22.5 250 0,00 min 3,53 klux 5,0 C -0,4 C
07.05.2004 07:55 6,5 C 6,9 C 89 % 996 hPa 0,0 l/m 6,9 m/s (2 Bft) W67.5 265 0,00 min 4,71 klux 4,8 C -2,9 C
07.05.2004 08:00 6,5 C 7,0 C 89 % 996 hPa 0,0 l/m 6,1 m/s (2 Bft) W-SW67.5 250 0,00 min 6,83 klux 4,8 C -2,0 C
07.05.2004 08:05 6,5 C 7,0 C 89 % 996 hPa 0,0 l/m 7,3 m/s (2 Bft) W-SW22.5 250 0,00 min 6,20 klux 4,8 C -3,3 C
07.05.2004 08:10 6,4 C 7,0 C 88 % 996 hPa 0,0 l/m 5,1 m/s (1 Bft) W-SW45 250 0,00 min 6,35 klux 4,6 C -0,7 C
07.05.2004 08:15 6,4 C 7,0 C 88 % 996 hPa 0,4 l/m 9,1 m/s (2 Bft) W-SW45 255 0,00 min 5,87 klux 4,6 C -5,0 C
07.05.2004 08:20 6,4 C 7,0 C 87 % 996 hPa 0,0 l/m 7,5 m/s (2 Bft) W-SW22.5 255 0,00 min 5,99 klux 4,4 C -3,6 C
07.05.2004 08:25 6,3 C 6,9 C 86 % 996 hPa 0,0 l/m 9,0 m/s (2 Bft) W-SW45 250 0,00 min 5,40 klux 4,1 C -5,1 C
07.05.2004 08:30 6,3 C 6,8 C 86 % 996 hPa 0,0 l/m 8,3 m/s (2 Bft) W45 260 0,00 min 5,29 klux 4,1 C -4,5 C
07.05.2004 08:35 6,2 C 6,8 C 86 % 996 hPa 0,0 l/m 7,8 m/s (2 Bft) W45 260 0,00 min 5,87 klux 4,0 C -4,2 C
07.05.2004 08:40 5,9 C 6,8 C 87 % 996 hPa 0,0 l/m 6,1 m/s (2 Bft) W45 260 0,00 min 6,08 klux 3,9 C -2,7 C
07.05.2004 08:45 6,2 C 6,7 C 87 % 996 hPa 0,0 l/m 8,1 m/s (2 Bft) W22.5 260 0,00 min 7,54 klux 4,2 C -4,5 C
07.05.2004 08:50 6,2 C 6,7 C 87 % 996 hPa 0,4 l/m 5,5 m/s (1 Bft) W67.5 275 0,00 min 6,40 klux 4,2 C -1,5 C
07.05.2004 08:55 6,3 C 6,7 C 86 % 996 hPa 0,0 l/m 8,4 m/s (2 Bft) W45 265 0,00 min 7,19 klux 4,1 C -4,6 C
07.05.2004 09:00 6,3 C 6,7 C 87 % 996 hPa 0,0 l/m 5,9 m/s (2 Bft) W22.5 260 0,00 min 6,87 klux 4,3 C -2,0 C
07.05.2004 09:05 6,2 C 6,7 C 87 % 996 hPa 0,0 l/m 6,3 m/s (2 Bft) W45 260 0,00 min 7,26 klux 4,2 C -2,6 C
07.05.2004 09:10 6,2 C 6,7 C 88 % 996 hPa 0,0 l/m 5,5 m/s (1 Bft) W67.5 265 0,00 min 4,79 klux 4,4 C -1,5 C
07.05.2004 09:15 6,3 C 6,7 C 88 % 996 hPa 0,4 l/m 7,7 m/s (2 Bft) W-SW45 250 0,00 min 8,18 klux 4,5 C -4,0 C
07.05.2004 09:20 6,3 C 6,7 C 87 % 996 hPa 0,0 l/m 6,7 m/s (2 Bft) W-SW22.5 255 0,00 min 7,39 klux 4,3 C -2,9 C
07.05.2004 09:25 6,2 C 6,8 C 87 % 997 hPa 0,0 l/m 5,5 m/s (1 Bft) W22.5 260 0,00 min 6,84 klux 4,2 C -1,6 C
07.05.2004 09:30 6,2 C 6,8 C 88 % 997 hPa 0,4 l/m 4,8 m/s (1 Bft) W45 270 0,00 min 6,77 klux 4,4 C -0,5 C
07.05.2004 09:35 6,1 C 6,7 C 87 % 997 hPa 0,0 l/m 8,0 m/s (2 Bft) W22.5 265 0,00 min 7,33 klux 4,1 C -4,5 C
07.05.2004 09:40 6,2 C 6,7 C 87 % 997 hPa 0,0 l/m 8,2 m/s (2 Bft) W-SW22.5 250 0,00 min 7,60 klux 4,2 C -4,6 C
07.05.2004 09:45 6,0 C 6,7 C 87 % 997 hPa 0,0 l/m 9,1 m/s (2 Bft) W45 265 0,00 min 9,3 klux 4,0 C -5,6 C
07.05.2004 09:50 6,0 C 6,6 C 87 % 996 hPa 0,4 l/m 7,5 m/s (2 Bft) W-SW22.5 255 0,00 min 8,06 klux 4,0 C -4,2 C
07.05.2004 09:55 6,0 C 6,6 C 87 % 996 hPa 0,0 l/m 7,2 m/s (2 Bft) W-SW45 255 0,00 min 8,19 klux 4,0 C -3,9 C
07.05.2004 10:00 6,0 C 6,5 C 87 % 996 hPa 0,0 l/m 7,8 m/s (2 Bft) W-SW22.5 250 0,00 min 9,2 klux 4,0 C -4,5 C
07.05.2004 10:05 6,0 C 6,5 C 87 % 997 hPa 0,4 l/m 7,2 m/s (2 Bft) W22.5 260 0,00 min 6,35 klux 4,0 C -3,9 C
07.05.2004 10:10 5,9 C 6,5 C 89 % 996 hPa 0,0 l/m 7,2 m/s (2 Bft) W22.5 260 0,00 min 7,64 klux 4,2 C -4,0 C
07.05.2004 10:15 5,8 C 6,5 C 89 % 996 hPa 0,0 l/m 7,4 m/s (2 Bft) W-SW22.5 250 0,00 min 7,39 klux 4,1 C -4,3 C
07.05.2004 10:20 5,8 C 6,4 C 89 % 996 hPa 0,0 l/m 4,8 m/s (1 Bft) W22.5 260 0,00 min 9,5 klux 4,1 C -0,9 C
07.05.2004 10:25 5,8 C 6,4 C 88 % 996 hPa 0,4 l/m 6,4 m/s (2 Bft) W45 265 0,00 min 10,3 klux 4,0 C -3,3 C
07.05.2004 10:30 5,8 C 6,4 C 88 % 996 hPa 0,0 l/m 9,6 m/s (2 Bft) W22.5 265 0,00 min 10,8 klux 4,0 C -6,3 C
07.05.2004 10:35 5,8 C 6,3 C 88 % 996 hPa 0,0 l/m 10,3 m/s (2 Bft) W45 270 0,00 min 10,0 klux 4,0 C -6,8 C
07.05.2004 10:40 5,8 C 6,3 C 88 % 996 hPa 0,0 l/m 7,3 m/s (2 Bft) W-SW22.5 250 0,00 min 9,9 klux 4,0 C -4,3 C
07.05.2004 10:45 5,8 C 6,3 C 88 % 996 hPa 0,4 l/m 5,3 m/s (1 Bft) W-SW22.5 250 0,00 min 7,77 klux 4,0 C -1,7 C
07.05.2004 10:50 5,8 C 6,3 C 89 % 996 hPa 0,0 l/m 5,9 m/s (2 Bft) W-SW22.5 255 0,00 min 8,33 klux 4,1 C -2,7 C
07.05.2004 10:55 5,8 C 6,3 C 89 % 996 hPa 0,0 l/m 7,2 m/s (2 Bft) W45 260 0,00 min 9,6 klux 4,1 C -4,2 C
07.05.2004 11:00 5,8 C 6,3 C 89 % 996 hPa 0,4 l/m 6,6 m/s (2 Bft) W-SW45 250 0,00 min 10,6 klux 4,1 C -3,4 C
07.05.2004 11:05 5,8 C 6,3 C 89 % 996 hPa 0,4 l/m 8,4 m/s (2 Bft) W67.5 260 0,00 min 10,3 klux 4,1 C -5,3 C
07.05.2004 11:10 5,8 C 6,3 C 89 % 996 hPa 0,0 l/m 8,3 m/s (2 Bft) W-SW45 255 0,00 min 10,5 klux 4,1 C -5,2 C
07.05.2004 11:15 5,8 C 6,3 C 89 % 996 hPa 0,4 l/m 5,6 m/s (1 Bft) W45 265 0,00 min 8,01 klux 4,1 C -2,1 C
07.05.2004 11:20 5,8 C 6,3 C 89 % 996 hPa 0,0 l/m 5,1 m/s (1 Bft) W-SW45 250 0,00 min 8,99 klux 4,1 C -1,5 C
07.05.2004 11:25 5,8 C 6,2 C 89 % 996 hPa 0,4 l/m 6,7 m/s (2 Bft) W45 265 0,00 min 9,4 klux 4,1 C -3,5 C
07.05.2004 11:30 5,8 C 6,2 C 89 % 996 hPa 0,4 l/m 4,4 m/s (1 Bft) W22.5 260 0,00 min 7,82 klux 4,1 C -0,4 C
07.05.2004 11:35 5,8 C 6,2 C 90 % 996 hPa 0,4 l/m 5,1 m/s (1 Bft) W45 260 0,00 min 8,29 klux 4,3 C -1,5 C
07.05.2004 11:40 5,8 C 6,3 C 90 % 996 hPa 0,0 l/m 5,1 m/s (1 Bft) W45 260 0,00 min 9,4 klux 4,3 C -1,5 C
07.05.2004 11:45 5,9 C 6,3 C 90 % 996 hPa 0,4 l/m 6,9 m/s (2 Bft) W-SW45 255 0,00 min 12,3 klux 4,4 C -3,7 C
07.05.2004 11:50 5,5 C 6,3 C 89 % 996 hPa 0,4 l/m 12,7 m/s (3 Bft) W22.5 265 0,00 min 14,5 klux 3,8 C -8,7 C
07.05.2004 11:55 5,8 C 6,3 C 88 % 996 hPa 0,4 l/m 11,3 m/s (2 Bft) W-SW22.5 250 0,00 min 16,2 klux 4,0 C -7,4 C
07.05.2004 12:00 5,8 C 6,2 C 88 % 996 hPa 0,0 l/m 9,4 m/s (2 Bft) W22.5 260 0,00 min 15,8 klux 4,0 C -6,1 C
07.05.2004 12:05 5,8 C 6,2 C 88 % 996 hPa 0,4 l/m 9,6 m/s (2 Bft) W45 265 0,00 min 18,5 klux 4,0 C -6,3 C
07.05.2004 12:10 5,8 C 6,2 C 88 % 996 hPa 0,0 l/m 9,6 m/s (2 Bft) W-SW67.5 255 0,00 min 18,7 klux 4,0 C -6,3 C
07.05.2004 12:15 5,8 C 6,1 C 87 % 996 hPa 0,4 l/m 8,9 m/s (2 Bft) W-SW67.5 245 0,00 min 19,8 klux 3,8 C -5,8 C
07.05.2004 12:20 5,8 C 6,1 C 87 % 996 hPa 0,0 l/m 8,4 m/s (2 Bft) W-SW22.5 250 0,00 min 20,9 klux 3,8 C -5,3 C
07.05.2004 12:25 5,9 C 6,1 C 87 % 996 hPa 0,0 l/m 11,8 m/s (2 Bft) W45 260 0,00 min 22,8 klux 3,9 C -7,6 C
07.05.2004 12:30 5,8 C 6,2 C 86 % 996 hPa 0,4 l/m 11,8 m/s (2 Bft) W-SW45 250 0,00 min 21,7 klux 3,6 C -7,7 C
07.05.2004 12:35 6,0 C 6,2 C 86 % 996 hPa 0,0 l/m 7,9 m/s (2 Bft) W45 265 0,00 min 22,2 klux 3,8 C -4,6 C
07.05.2004 12:40 5,8 C 6,2 C 87 % 996 hPa 0,4 l/m 8,4 m/s (2 Bft) W-SW22.5 255 0,00 min 21,1 klux 3,8 C -5,3 C
07.05.2004 12:45 5,9 C 6,2 C 87 % 996 hPa 0,0 l/m 6,8 m/s (2 Bft) W-SW22.5 250 0,00 min 19,8 klux 3,9 C -3,5 C
07.05.2004 12:50 6,0 C 6,2 C 87 % 996 hPa 0,4 l/m 5,5 m/s (1 Bft) W-SW45 250 0,00 min 22,0 klux 4,0 C -1,8 C
07.05.2004 12:55 6,0 C 6,3 C 87 % 996 hPa 0,0 l/m 7,6 m/s (2 Bft) W67.5 260 0,00 min 19,8 klux 4,0 C -4,3 C
07.05.2004 13:00 5,7 C 6,3 C 87 % 996 hPa 0,0 l/m 11,2 m/s (2 Bft) W22.5 260 0,00 min 17,4 klux 3,7 C -7,5 C
07.05.2004 13:05 5,8 C 6,2 C 87 % 996 hPa 0,4 l/m 8,5 m/s (2 Bft) W67.5 260 0,00 min 14,3 klux 3,8 C -5,4 C
07.05.2004 13:10 5,7 C 6,2 C 88 % 996 hPa 0,0 l/m 7,8 m/s (2 Bft) W45 260 0,00 min 12,9 klux 3,9 C -4,9 C
07.05.2004 13:15 5,8 C 6,2 C 88 % 996 hPa 0,0 l/m 8,8 m/s (2 Bft) W-SW45 245 0,00 min 13,3 klux 4,0 C -5,7 C
07.05.2004 13:20 5,8 C 6,2 C 89 % 996 hPa 0,4 l/m 9,4 m/s (2 Bft) W45 260 0,00 min 14,5 klux 4,1 C -6,2 C
07.05.2004 13:25 5,8 C 6,1 C 88 % 996 hPa 0,0 l/m 9,1 m/s (2 Bft) W22.5 260 0,00 min 11,9 klux 4,0 C -5,9 C
07.05.2004 13:30 5,8 C 6,2 C 88 % 996 hPa 0,0 l/m 6,3 m/s (2 Bft) W-SW22.5 250 0,00 min 13,3 klux 4,0 C -3,1 C
07.05.2004 13:35 5,9 C 6,2 C 88 % 996 hPa 0,0 l/m 5,7 m/s (1 Bft) W-SW22.5 255 0,00 min 11,6 klux 4,1 C -2,2 C
07.05.2004 13:40 5,9 C 6,2 C 88 % 996 hPa 0,4 l/m 6,8 m/s (2 Bft) W-SW22.5 255 0,00 min 12,1 klux 4,1 C -3,6 C
07.05.2004 13:45 5,9 C 6,2 C 89 % 997 hPa 0,4 l/m 5,3 m/s (1 Bft) W-SW45 250 0,00 min 11,8 klux 4,2 C -1,6 C
07.05.2004 13:50 5,9 C 6,2 C 89 % 997 hPa 0,0 l/m 6,3 m/s (2 Bft) W22.5 260 0,00 min 11,8 klux 4,2 C -2,9 C
07.05.2004 13:55 5,9 C 6,2 C 89 % 997 hPa 0,4 l/m 8,0 m/s (2 Bft) W-SW45 255 0,00 min 13,2 klux 4,2 C -4,8 C
07.05.2004 14:00 6,0 C 6,2 C 89 % 996 hPa 0,4 l/m 4,1 m/s (1 Bft) W-SW45 250 0,00 min 11,0 klux 4,3 C 0,4 C
07.05.2004 14:05 5,9 C 6,3 C 89 % 997 hPa 0,4 l/m 6,9 m/s (2 Bft) W45 260 0,00 min 12,7 klux 4,2 C -3,7 C
07.05.2004 14:10 5,9 C 6,3 C 89 % 997 hPa 0,4 l/m 5,7 m/s (1 Bft) W-SW67.5 250 0,00 min 13,9 klux 4,2 C -2,2 C
07.05.2004 14:15 6,1 C 6,3 C 88 % 997 hPa 0,0 l/m 7,8 m/s (2 Bft) W-SW45 250 0,00 min 13,8 klux 4,3 C -4,4 C
07.05.2004 14:20 6,1 C 6,4 C 89 % 996 hPa 0,4 l/m 6,4 m/s (2 Bft) W-SW67.5 245 0,00 min 16,3 klux 4,4 C -2,8 C
07.05.2004 14:25 6,2 C 6,4 C 88 % 996 hPa 0,0 l/m 7,3 m/s (2 Bft) W-SW22.5 255 0,00 min 18,4 klux 4,4 C -3,6 C
07.05.2004 14:30 6,1 C 6,5 C 88 % 996 hPa 0,0 l/m 7,1 m/s (2 Bft) W22.5 260 0,00 min 14,9 klux 4,3 C -3,6 C
07.05.2004 14:35 6,2 C 6,5 C 88 % 996 hPa 0,4 l/m 5,4 m/s (1 Bft) W45 260 0,00 min 19,6 klux 4,4 C -1,4 C
07.05.2004 14:40 6,4 C 6,6 C 88 % 996 hPa 0,4 l/m 7,1 m/s (2 Bft) W-SW45 255 0,00 min 23,9 klux 4,6 C -3,2 C
07.05.2004 14:45 6,3 C 6,6 C 86 % 996 hPa 0,0 l/m 9,3 m/s (2 Bft) W67.5 260 0,00 min 25,8 klux 4,1 C -5,3 C
07.05.2004 14:50 6,2 C 6,7 C 86 % 996 hPa 0,4 l/m 9,2 m/s (2 Bft) W-SW45 255 0,00 min 21,7 klux 4,0 C -5,4 C
07.05.2004 14:55 6,4 C 6,7 C 87 % 996 hPa 0,0 l/m 6,9 m/s (2 Bft) W-SW45 250 0,00 min 22,9 klux 4,4 C -3,0 C
07.05.2004 15:00 6,4 C 6,7 C 87 % 996 hPa 0,0 l/m 6,8 m/s (2 Bft) W45 265 0,00 min 26,3 klux 4,4 C -2,8 C
07.05.2004 15:05 6,4 C 6,8 C 86 % 996 hPa 0,0 l/m 9,7 m/s (2 Bft) W45 260 0,00 min 19,4 klux 4,2 C -5,5 C
07.05.2004 15:10 6,4 C 6,8 C 86 % 996 hPa 0,0 l/m 7,9 m/s (2 Bft) W-SW22.5 255 0,00 min 17,9 klux 4,2 C -4,0 C
07.05.2004 15:15 6,4 C 6,8 C 86 % 996 hPa 0,4 l/m 8,4 m/s (2 Bft) W45 265 0,00 min 18,4 klux 4,2 C -4,4 C
07.05.2004 15:20 6,4 C 6,7 C 86 % 996 hPa 0,0 l/m 9,9 m/s (2 Bft) W45 260 0,00 min 18,1 klux 4,2 C -5,6 C
07.05.2004 15:25 6,2 C 6,7 C 86 % 996 hPa 0,0 l/m 9,5 m/s (2 Bft) W45 260 0,00 min 16,9 klux 4,0 C -5,6 C
07.05.2004 15:30 6,4 C 6,7 C 86 % 997 hPa 0,0 l/m 8,1 m/s (2 Bft) W45 260 0,00 min 18,7 klux 4,2 C -4,2 C
07.05.2004 15:35 6,3 C 6,7 C 86 % 997 hPa 0,0 l/m 8,2 m/s (2 Bft) W45 260 0,00 min 17,8 klux 4,1 C -4,4 C
07.05.2004 15:40 6,4 C 6,7 C 86 % 997 hPa 0,4 l/m 7,6 m/s (2 Bft) W45 260 0,00 min 15,3 klux 4,2 C -3,8 C
07.05.2004 15:45 6,4 C 6,8 C 86 % 997 hPa 0,0 l/m 8,8 m/s (2 Bft) W45 270 0,00 min 16,0 klux 4,2 C -4,8 C
07.05.2004 15:50 6,5 C 6,8 C 85 % 997 hPa 0,0 l/m 8,9 m/s (2 Bft) W-SW45 250 0,00 min 15,9 klux 4,2 C -4,8 C
07.05.2004 15:55 6,5 C 6,8 C 86 % 997 hPa 0,0 l/m 4,8 m/s (1 Bft) W-SW45 255 0,00 min 12,1 klux 4,3 C -0,1 C
07.05.2004 16:00 6,5 C 6,8 C 86 % 997 hPa 0,0 l/m 6,1 m/s (2 Bft) W-SW22.5 250 0,00 min 12,1 klux 4,3 C -2,0 C
07.05.2004 16:05 6,5 C 6,8 C 86 % 997 hPa 0,0 l/m 5,6 m/s (1 Bft) W-SW45 255 0,00 min 15,0 klux 4,3 C -1,3 C
07.05.2004 16:10 6,5 C 6,8 C 87 % 997 hPa 0,0 l/m 4,4 m/s (1 Bft) W-SW45 245 0,00 min 12,6 klux 4,5 C 0,6 C
07.05.2004 16:15 6,6 C 6,8 C 87 % 997 hPa 0,0 l/m 7,5 m/s (2 Bft) W-SW22.5 255 0,00 min 14,8 klux 4,6 C -3,3 C
07.05.2004 16:20 6,5 C 6,8 C 87 % 997 hPa 0,0 l/m 6,8 m/s (2 Bft) W-SW22.5 255 0,00 min 12,3 klux 4,5 C -2,7 C
07.05.2004 16:25 6,4 C 6,8 C 87 % 997 hPa 0,4 l/m 5,6 m/s (1 Bft) W-SW22.5 250 0,00 min 12,1 klux 4,4 C -1,4 C
07.05.2004 16:30 6,4 C 6,8 C 86 % 997 hPa 0,0 l/m 8,6 m/s (2 Bft) W-SW45 250 0,00 min 11,4 klux 4,2 C -4,7 C
07.05.2004 16:35 6,4 C 6,7 C 86 % 997 hPa 0,0 l/m 10,4 m/s (2 Bft) W-SW45 245 0,00 min 10,8 klux 4,2 C -6,0 C
07.05.2004 16:40 6,4 C 6,7 C 87 % 997 hPa 0,0 l/m 6,0 m/s (2 Bft) W45 260 0,00 min 11,6 klux 4,4 C -1,9 C
07.05.2004 16:45 6,5 C 6,7 C 87 % 997 hPa 0,4 l/m 6,6 m/s (2 Bft) W-SW22.5 245 0,00 min 12,4 klux 4,5 C -2,5 C
07.05.2004 16:50 6,5 C 6,7 C 87 % 997 hPa 0,0 l/m 4,4 m/s (1 Bft) W-SW45 250 0,00 min 12,2 klux 4,5 C 0,5 C
07.05.2004 16:55 6,4 C 6,7 C 88 % 997 hPa 0,0 l/m 5,5 m/s (1 Bft) W-SW45 250 0,00 min 10,9 klux 4,6 C -1,3 C
07.05.2004 17:00 6,6 C 6,7 C 88 % 997 hPa 0,4 l/m 6,0 m/s (2 Bft) W-SW45 250 0,00 min 11,4 klux 4,8 C -1,7 C
07.05.2004 17:05 6,6 C 6,7 C 87 % 997 hPa 0,0 l/m 5,9 m/s (2 Bft) W-SW22.5 245 0,00 min 10,9 klux 4,6 C -1,5 C
07.05.2004 17:10 6,5 C 6,8 C 88 % 997 hPa 0,0 l/m 6,9 m/s (2 Bft) W45 265 0,00 min 12,0 klux 4,7 C -2,9 C
07.05.2004 17:15 6,6 C 6,8 C 88 % 997 hPa 0,4 l/m 5,3 m/s (1 Bft) W-SW45 255 0,00 min 10,6 klux 4,8 C -0,8 C
07.05.2004 17:20 6,5 C 6,8 C 87 % 997 hPa 0,0 l/m 7,7 m/s (2 Bft) W-SW22.5 250 0,00 min 9,8 klux 4,5 C -3,6 C
07.05.2004 17:25 6,6 C 6,8 C 87 % 997 hPa 0,0 l/m 6,0 m/s (2 Bft) W-SW45 250 0,00 min 10,0 klux 4,6 C -1,7 C
07.05.2004 17:30 6,5 C 6,8 C 87 % 997 hPa 0,0 l/m 6,8 m/s (2 Bft) W-SW22.5 250 0,00 min 11,9 klux 4,5 C -2,8 C
07.05.2004 17:35 6,4 C 6,8 C 87 % 997 hPa 0,0 l/m 7,0 m/s (2 Bft) W45 260 0,00 min 11,0 klux 4,4 C -3,1 C
07.05.2004 17:40 6,5 C 6,8 C 87 % 997 hPa 0,4 l/m 4,8 m/s (1 Bft) W45 260 0,00 min 13,2 klux 4,5 C -0,2 C
07.05.2004 17:45 6,5 C 6,8 C 87 % 997 hPa 0,0 l/m 5,9 m/s (2 Bft) W-SW22.5 245 0,00 min 10,1 klux 4,5 C -1,7 C
07.05.2004 17:50 6,5 C 6,8 C 87 % 997 hPa 0,0 l/m 4,8 m/s (1 Bft) W-SW45 250 0,00 min 9,6 klux 4,5 C -0,2 C
07.05.2004 17:55 6,5 C 6,8 C 87 % 997 hPa 0,0 l/m 4,6 m/s (1 Bft) W-SW22.5 250 0,00 min 6,17 klux 4,5 C 0,1 C
07.05.2004 18:00 6,4 C 6,8 C 87 % 997 hPa 0,0 l/m 4,9 m/s (1 Bft) W-SW22.5 250 0,00 min 6,49 klux 4,4 C -0,4 C
07.05.2004 18:05 6,4 C 6,8 C 87 % 997 hPa 0,0 l/m 5,0 m/s (1 Bft) W-SW45 240 0,00 min 6,95 klux 4,4 C -0,6 C
07.05.2004 18:10 6,4 C 6,8 C 88 % 997 hPa 0,0 l/m 5,8 m/s (2 Bft) W67.5 260 0,00 min 5,31 klux 4,6 C -1,7 C
07.05.2004 18:15 6,4 C 6,8 C 88 % 997 hPa 0,0 l/m 4,9 m/s (1 Bft) W-SW22.5 250 0,00 min 6,28 klux 4,6 C -0,4 C
07.05.2004 18:20 6,4 C 6,7 C 88 % 997 hPa 0,0 l/m 3,4 m/s (1 Bft) W-SW22.5 250 0,00 min 4,52 klux 4,6 C 2,2 C
07.05.2004 18:25 6,4 C 6,8 C 89 % 997 hPa 0,4 l/m 3,2 m/s (1 Bft) W-SW22.5 255 0,00 min 3,23 klux 4,7 C 2,7 C
07.05.2004 18:30 6,4 C 6,7 C 89 % 997 hPa 0,0 l/m 2,9 m/s (1 Bft) W-SW22.5 245 0,00 min 2,27 klux 4,7 C 3,4 C
07.05.2004 18:35 6,4 C 6,7 C 89 % 997 hPa 0,0 l/m 2,6 m/s (1 Bft) W-SW22.5 250 0,00 min 4,36 klux 4,7 C 4,0 C
07.05.2004 18:40 6,4 C 6,7 C 89 % 997 hPa 0,0 l/m 2,9 m/s (1 Bft) W-SW22.5 250 0,00 min 2,34 klux 4,7 C 3,4 C
07.05.2004 18:45 6,4 C 6,7 C 90 % 997 hPa 0,0 l/m 2,3 m/s (1 Bft) W22.5 260 0,00 min 2,15 klux 4,9 C 5,0 C
07.05.2004 18:50 6,4 C 6,8 C 90 % 997 hPa 0,4 l/m 2,5 m/s (1 Bft) W22.5 260 0,00 min 4,00 klux 4,9 C 4,2 C
07.05.2004 18:55 6,5 C 6,8 C 90 % 997 hPa 0,0 l/m 2,1 m/s (1 Bft) W-SW22.5 250 0,00 min 4,53 klux 5,0 C 5,5 C
07.05.2004 19:00 6,5 C 6,8 C 90 % 997 hPa 0,0 l/m 2,4 m/s (1 Bft) W-SW22.5 245 0,00 min 3,92 klux 5,0 C 4,6 C
07.05.2004 19:05 6,5 C 6,8 C 91 % 997 hPa 0,0 l/m 1,8 m/s (1 Bft) W-SW 250 0,00 min 3,42 klux 5,1 C 6,4 C
07.05.2004 19:10 6,6 C 6,8 C 91 % 997 hPa 0,0 l/m 1,7 m/s (1 Bft) W-SW22.5 240 0,00 min 1,67 klux 5,2 C 6,6 C
07.05.2004 19:15 6,5 C 6,9 C 91 % 997 hPa 0,4 l/m 1,4 m/s (1 Bft) SW22.5 235 0,00 min 1,35 klux 5,1 C 6,5 C
07.05.2004 19:20 6,5 C 6,9 C 91 % 997 hPa 0,0 l/m 1,6 m/s (1 Bft) W-SW 255 0,00 min 1,72 klux 5,1 C 6,5 C
07.05.2004 19:25 6,4 C 6,9 C 91 % 997 hPa 0,0 l/m 2,2 m/s (1 Bft) W-SW22.5 240 0,00 min 1,72 klux 5,0 C 5,2 C
07.05.2004 19:30 6,4 C 6,9 C 92 % 997 hPa 0,0 l/m 2,2 m/s (1 Bft) W-SW22.5 240 0,00 min 2,05 klux 5,2 C 5,2 C
07.05.2004 19:35 6,3 C 6,9 C 92 % 997 hPa 0,4 l/m 3,0 m/s (1 Bft) W-SW22.5 250 0,00 min 1,91 klux 5,1 C 3,0 C
07.05.2004 19:40 6,4 C 6,9 C 92 % 997 hPa 0,0 l/m 3,3 m/s (1 Bft) W-SW22.5 250 0,00 min 1,56 klux 5,2 C 2,4 C
07.05.2004 19:45 6,3 C 6,9 C 92 % 997 hPa 0,0 l/m 4,2 m/s (1 Bft) W-SW22.5 250 0,00 min 1,36 klux 5,1 C 0,6 C
07.05.2004 19:50 6,3 C 6,8 C 92 % 997 hPa 0,4 l/m 3,6 m/s (1 Bft) W45 260 0,00 min 996 lux 5,1 C 1,7 C
07.05.2004 19:55 6,3 C 6,8 C 92 % 997 hPa 0,0 l/m 3,2 m/s (1 Bft) W-SW45 250 0,00 min 983 lux 5,1 C 2,6 C
07.05.2004 20:00 6,3 C 6,8 C 92 % 997 hPa 0,0 l/m 5,0 m/s (1 Bft) W-SW22.5 250 0,00 min 735 lux 5,1 C -0,7 C
07.05.2004 20:05 6,3 C 6,8 C 92 % 996 hPa 0,0 l/m 4,9 m/s (1 Bft) W-SW22.5 250 0,00 min 720 lux 5,1 C -0,5 C
07.05.2004 20:10 6,3 C 6,7 C 92 % 996 hPa 0,0 l/m 4,4 m/s (1 Bft) W-SW22.5 245 0,00 min 903 lux 5,1 C 0,3 C
07.05.2004 20:15 6,3 C 6,8 C 92 % 996 hPa 0,4 l/m 4,1 m/s (1 Bft) W-SW22.5 245 0,00 min 954 lux 5,1 C 0,7 C
07.05.2004 20:20 6,3 C 6,7 C 92 % 996 hPa 0,0 l/m 5,1 m/s (1 Bft) W-SW22.5 245 0,00 min 1,12 klux 5,1 C -0,9 C
07.05.2004 20:25 6,4 C 6,7 C 92 % 996 hPa 0,0 l/m 4,8 m/s (1 Bft) W-SW22.5 255 0,00 min 1,12 klux 5,2 C -0,2 C
07.05.2004 20:30 6,4 C 6,7 C 91 % 996 hPa 0,0 l/m 7,9 m/s (2 Bft) W-SW22.5 255 0,00 min 690 lux 5,0 C -4,0 C
07.05.2004 20:35 6,4 C 6,7 C 90 % 996 hPa 0,0 l/m 3,8 m/s (1 Bft) W-SW22.5 250 0,00 min 456 lux 4,9 C 1,4 C
07.05.2004 20:40 6,3 C 6,7 C 91 % 996 hPa 0,0 l/m 2,4 m/s (1 Bft) W-SW22.5 255 0,00 min 400 lux 4,9 C 4,6 C
07.05.2004 20:45 6,3 C 6,7 C 91 % 996 hPa 0,0 l/m 4,2 m/s (1 Bft) W-SW22.5 250 0,00 min 254 lux 4,9 C 0,6 C
07.05.2004 20:50 6,3 C 6,7 C 90 % 996 hPa 0,0 l/m 3,0 m/s (1 Bft) W45 260 0,00 min 155 lux 4,8 C 2,9 C
07.05.2004 20:55 6,3 C 6,7 C 90 % 996 hPa 0,0 l/m 3,5 m/s (1 Bft) W-SW22.5 250 0,00 min 103 lux 4,8 C 2,0 C
07.05.2004 21:00 6,3 C 6,6 C 90 % 997 hPa 0,0 l/m 3,3 m/s (1 Bft) W-SW22.5 240 0,00 min 57 lux 4,8 C 2,3 C
07.05.2004 21:05 6,3 C 6,7 C 90 % 997 hPa 0,0 l/m 3,2 m/s (1 Bft) W-SW22.5 245 0,00 min 35 lux 4,8 C 2,6 C
07.05.2004 21:10 6,3 C 6,7 C 90 % 997 hPa 0,0 l/m 1,6 m/s (1 Bft) W-SW22.5 250 0,00 min 26 lux 4,8 C 6,3 C
07.05.2004 21:15 6,4 C 6,6 C 91 % 997 hPa 0,0 l/m 0,6 m/s (0 Bft) W-SW22.5 245 0,00 min 26 lux 5,0 C 6,4 C
07.05.2004 21:20 6,3 C 6,6 C 91 % 997 hPa 0,0 l/m 2,2 m/s (1 Bft) W-SW22.5 250 0,00 min 12 lux 4,9 C 5,1 C
07.05.2004 21:25 6,3 C 6,7 C 91 % 997 hPa 0,0 l/m 2,9 m/s (1 Bft) W-SW22.5 240 0,00 min 8 lux 4,9 C 3,3 C
07.05.2004 21:30 6,3 C 6,6 C 90 % 997 hPa 0,0 l/m 2,8 m/s (1 Bft) W-SW22.5 245 0,00 min 5 lux 4,8 C 3,5 C
07.05.2004 21:35 6,4 C 6,6 C 88 % 997 hPa 0,4 l/m 5,8 m/s (2 Bft) W-SW22.5 255 0,00 min 0 lux 4,6 C -1,7 C
07.05.2004 21:40 6,3 C 6,6 C 88 % 997 hPa 0,0 l/m 6,5 m/s (2 Bft) W-SW22.5 250 0,00 min 0 lux 4,5 C -2,7 C
07.05.2004 21:45 6,3 C 6,6 C 88 % 997 hPa 0,0 l/m 4,5 m/s (1 Bft) W-SW22.5 245 0,00 min 0 lux 4,5 C 0,1 C
07.05.2004 21:50 6,3 C 6,6 C 88 % 997 hPa 0,0 l/m 2,8 m/s (1 Bft) W-SW22.5 245 0,00 min 0 lux 4,5 C 3,4 C
07.05.2004 21:55 6,2 C 6,6 C 89 % 997 hPa 0,0 l/m 2,3 m/s (1 Bft) W-SW22.5 245 0,00 min 0 lux 4,5 C 4,8 C
07.05.2004 22:00 6,2 C 6,6 C 89 % 997 hPa 0,0 l/m 0,6 m/s (0 Bft) W-SW 250 0,00 min 0 lux 4,5 C 6,2 C
07.05.2004 22:05 6,3 C 6,6 C 90 % 997 hPa 0,0 l/m 1,4 m/s (1 Bft) W22.5 260 0,00 min 0 lux 4,8 C 6,3 C
07.05.2004 22:10 6,2 C 6,5 C 90 % 997 hPa 0,4 l/m 2,2 m/s (1 Bft) W-SW22.5 245 0,00 min 0 lux 4,7 C 5,0 C
07.05.2004 22:15 6,2 C 6,5 C 90 % 997 hPa 0,0 l/m 2,3 m/s (1 Bft) W-SW22.5 250 0,00 min 0 lux 4,7 C 4,6 C
07.05.2004 22:20 6,2 C 6,5 C 90 % 997 hPa 0,0 l/m 1,2 m/s (1 Bft) W-SW 240 0,00 min 0 lux 4,7 C 6,2 C
07.05.2004 22:25 6,1 C 6,5 C 90 % 997 hPa 0,0 l/m 2,1 m/s (1 Bft) W22.5 260 0,00 min 0 lux 4,6 C 5,3 C
07.05.2004 22:30 6,1 C 6,5 C 89 % 997 hPa 0,0 l/m 2,2 m/s (1 Bft) W-SW 250 0,00 min 0 lux 4,4 C 4,8 C
07.05.2004 22:35 6,1 C 6,5 C 89 % 997 hPa 0,0 l/m 2,3 m/s (1 Bft) W-SW 255 0,00 min 0 lux 4,4 C 4,7 C
07.05.2004 22:40 6,0 C 6,5 C 89 % 997 hPa 0,0 l/m 2,9 m/s (1 Bft) W22.5 270 0,00 min 0 lux 4,3 C 3,0 C
07.05.2004 22:45 6,0 C 6,5 C 89 % 997 hPa 0,0 l/m 0,2 m/s (0 Bft) W 270 0,00 min 0 lux 4,3 C 6,0 C
07.05.2004 22:50 6,1 C 6,5 C 89 % 997 hPa 0,4 l/m 0,0 m/s (0 Bft) W 270 0,00 min 0 lux 4,4 C 6,1 C
07.05.2004 22:55 6,0 C 6,4 C 90 % 997 hPa 0,0 l/m 0,0 m/s (0 Bft) W 270 0,00 min 0 lux 4,5 C 6,0 C
07.05.2004 23:00 6,0 C 6,4 C 90 % 997 hPa 0,7 l/m 0,0 m/s (0 Bft) W 270 0,00 min 0 lux 4,5 C 6,0 C
07.05.2004 23:05 5,9 C 6,4 C 92 % 997 hPa 0,0 l/m 0,0 m/s (0 Bft) W 270 0,00 min 0 lux 4,7 C 5,9 C
07.05.2004 23:10 5,9 C 6,4 C 92 % 997 hPa 0,4 l/m 0,9 m/s (0 Bft) W22.5 260 0,00 min 0 lux 4,7 C 5,9 C
07.05.2004 23:15 5,9 C 6,3 C 92 % 997 hPa 0,0 l/m 1,2 m/s (1 Bft) W 265 0,00 min 0 lux 4,7 C 5,9 C
07.05.2004 23:20 5,9 C 6,3 C 93 % 997 hPa 0,4 l/m 1,4 m/s (1 Bft) W-SW22.5 240 0,00 min 0 lux 4,9 C 5,9 C
07.05.2004 23:25 5,8 C 6,3 C 93 % 997 hPa 0,0 l/m 2,0 m/s (1 Bft) W-SW22.5 240 0,00 min 0 lux 4,8 C 5,2 C
07.05.2004 23:30 5,8 C 6,3 C 93 % 997 hPa 0,0 l/m 1,2 m/s (1 Bft) W-SW22.5 250 0,00 min 0 lux 4,8 C 5,8 C
07.05.2004 23:35 5,8 C 6,2 C 93 % 997 hPa 0,0 l/m 1,2 m/s (1 Bft) W-SW22.5 250 0,00 min 0 lux 4,8 C 5,8 C
07.05.2004 23:40 5,8 C 6,2 C 93 % 997 hPa 0,0 l/m 1,4 m/s (1 Bft) W-SW22.5 245 0,00 min 0 lux 4,8 C 5,8 C
07.05.2004 23:45 5,7 C 6,2 C 93 % 997 hPa 0,4 l/m 2,1 m/s (1 Bft) W-SW22.5 250 0,00 min 0 lux 4,7 C 4,7 C
07.05.2004 23:50 5,6 C 6,1 C 93 % 997 hPa 0,0 l/m 1,9 m/s (1 Bft) W-SW22.5 240 0,00 min 0 lux 4,6 C 5,4 C
07.05.2004 23:55 5,6 C 6,1 C 92 % 997 hPa 0,0 l/m 1,9 m/s (1 Bft) W-SW22.5 250 0,00 min 0 lux 4,4 C 5,4 C
_ Min-Zeit 11:50 12:15 15:50 00:00 - 22:50 - - - - 12:30 11:50
Minimum _ 5,5 C 6,1 C 85 % 996 hPa - 0,0 m/s (0 Bft) - - - - 3,6 C -8,7 C
_ Max-Zeit 00:00 00:00 00:00 09:25 23:00 11:50 - - 00:00 15:00 00:00 00:05
Maximum _ 7,6 C 8,3 C 94 % 997 hPa 0,7 l/m 12,7 m/s
W (6 Bft)
- - 0,00 min 26,3 klux 6,7 C 7,6 C
Durchschnitt _ 6,5 C 6,9 C 89 % 997 hPa #26,3 l/m 4,9 m/s (3 Bft) W-SW - #0 min. 5,62 klux 4,8 C 0,4 C